Honaunau, Hawaii
Current Conditions -  °F | °C
As of 4:53 PM on Friday 24 Oct 2014 (Local Time) from PHKO Reporting Station
Few Clouds Few Clouds  
Wind Chill: 83°   Ceiling: Unl
Heat Index: 88°   Visibility: 10mi
Dew Point: 71°   Wind: 7mph
Humidity: 67%   Direction: 200°SSW
Pressure: 29.96"   Gusts: NA
Location:  19.42°N, 155.91°W
Report Text: PHKO 250253Z 20006KT 10SM FEW060 28/22 A2996 RMK AO2 SLP144 T02830217 53003
Loading
Personal Weather Stations






























Interactive Weather Map
Tropical Storm Tracking
New forecast layout! Learn more

10-Day Weather Forecast

Advertisements
Track Severe Weather on mobile